Time;durP1;ratioP1;P1;durP2;ratioP2;P2;SDS_P1;SDS_P2;PMS_P1;PMS_P2;Temp;Humidity;BMP_temperature;BMP_pressure;BME280_temperature;BME280_humidity;BME280_pressure;Samples;Min_cycle;Max_cycle;Signal;HPM_P1;HPM_P2
2022/08/31 00:06:16;;;;;;;3.50;3.30;;;;;;;13.79;94.65;102556.88;5032567;28;20479;-55
2022/08/31 00:08:44;;;;;;;3.20;3.10;;;;;;;13.78;94.04;102557.03;5033024;28;20834;-54
2022/08/31 00:11:13;;;;;;;3.73;3.37;;;;;;;13.76;94.15;102554.53;5032824;28;20797;-56
2022/08/31 00:13:41;;;;;;;3.70;3.47;;;;;;;13.73;93.21;102552.22;5032855;28;20436;-53
2022/08/31 00:16:11;;;;;;;3.20;3.10;;;;;;;13.71;92.80;102556.88;5032377;28;20468;-54
2022/08/31 00:18:39;;;;;;;3.13;3.03;;;;;;;13.69;92.15;102561.59;5032943;28;20428;-51
2022/08/31 00:21:07;;;;;;;3.30;3.10;;;;;;;13.67;92.09;102552.06;5032828;28;20476;-52
2022/08/31 00:23:34;;;;;;;3.17;3.03;;;;;;;13.62;91.37;102554.44;5032482;28;20436;-56
2022/08/31 00:26:02;;;;;;;3.20;3.00;;;;;;;13.58;90.95;102555.78;5032255;28;20491;-55
2022/08/31 00:28:29;;;;;;;3.00;2.90;;;;;;;13.51;90.33;102558.31;5032799;28;20440;-55
2022/08/31 00:30:57;;;;;;;2.90;2.80;;;;;;;13.44;90.27;102562.66;5032851;28;20477;-53
2022/08/31 00:33:26;;;;;;;3.30;3.10;;;;;;;13.38;90.06;102559.84;5032483;28;20928;-56
2022/08/31 00:35:53;;;;;;;3.43;3.23;;;;;;;13.34;90.69;102556.69;5032006;28;20490;-56
2022/08/31 00:38:21;;;;;;;3.30;3.20;;;;;;;13.31;91.20;102557.00;5032298;28;20434;-54
2022/08/31 00:40:49;;;;;;;3.60;3.40;;;;;;;13.29;92.25;102551.81;5032545;28;20471;-56
2022/08/31 00:43:34;;;;;;;3.87;3.60;;;;;;;13.40;96.26;102555.16;5032370;28;20781;-56
2022/08/31 00:46:02;;;;;;;3.57;3.37;;;;;;;13.38;95.62;102562.53;5031825;28;20470;-56
2022/08/31 00:48:31;;;;;;;3.17;2.97;;;;;;;13.40;95.78;102560.50;5032167;28;20429;-53
2022/08/31 00:50:59;;;;;;;3.50;3.30;;;;;;;13.41;95.51;102562.19;5032108;28;20527;-56
2022/08/31 00:53:28;;;;;;;3.07;2.97;;;;;;;13.45;95.41;102560.81;5021426;28;20443;-56
2022/08/31 00:55:55;;;;;;;3.20;3.10;;;;;;;13.47;95.24;102556.97;5026278;28;20862;-56
2022/08/31 00:58:23;;;;;;;3.30;3.10;;;;;;;13.50;95.23;102548.56;5032241;28;20956;-56
2022/08/31 01:00:51;;;;;;;2.90;2.80;;;;;;;13.51;95.20;102565.50;5031993;28;20475;-51
2022/08/31 01:03:20;;;;;;;3.17;3.03;;;;;;;13.52;94.82;102553.78;5030874;28;20432;-52
2022/08/31 01:05:50;;;;;;;3.20;3.10;;;;;;;13.53;94.39;102555.47;5031476;28;20468;-53
2022/08/31 01:08:17;;;;;;;3.50;3.20;;;;;;;13.55;94.77;102558.81;5032234;28;20432;-56
2022/08/31 01:10:53;;;;;;;3.90;3.60;;;;;;;13.56;94.54;102552.44;5031973;28;20484;-54
2022/08/31 01:13:21;;;;;;;3.50;3.33;;;;;;;13.59;94.83;102568.19;5031618;28;20795;-55
2022/08/31 01:15:57;;;;;;;3.50;3.40;;;;;;;13.61;95.14;102561.63;5031269;28;20822;-56
2022/08/31 01:18:25;;;;;;;4.30;3.50;;;;;;;13.62;94.48;102557.94;5031855;28;20833;-55
2022/08/31 01:21:04;;;;;;;4.03;3.83;;;;;;;13.61;93.44;102560.78;5031780;28;20432;-55
2022/08/31 01:23:37;;;;;;;3.77;3.57;;;;;;;13.61;94.27;102560.78;5031480;28;20434;-54
2022/08/31 01:26:07;;;;;;;4.73;3.73;;;;;;;13.68;97.88;102562.59;5031199;28;20464;-53
2022/08/31 01:28:35;;;;;;;3.10;3.00;;;;;;;13.74;98.83;102561.06;5031791;28;20416;-54
2022/08/31 01:31:06;;;;;;;3.63;3.40;;;;;;;13.81;99.35;102564.75;5031347;28;20929;-51
2022/08/31 01:33:36;;;;;;;3.97;3.77;;;;;;;13.85;99.38;102558.88;5031296;28;20921;-55
2022/08/31 01:36:05;;;;;;;3.27;3.17;;;;;;;13.89;98.54;102553.97;5031044;28;20466;-54
2022/08/31 01:38:35;;;;;;;4.00;3.60;;;;;;;13.94;99.87;102545.41;5031400;28;20867;-48
2022/08/31 01:41:04;;;;;;;3.80;3.50;;;;;;;13.93;99.90;102555.31;5031181;28;20439;-53
2022/08/31 01:43:33;;;;;;;4.47;4.07;;;;;;;13.93;100.00;102549.09;5031202;28;20434;-54
2022/08/31 01:46:01;;;;;;;6.47;3.80;;;;;;;13.95;100.00;102547.09;5030819;28;20472;-51
2022/08/31 01:48:32;;;;;;;3.87;3.73;;;;;;;13.95;100.00;102544.41;5031372;28;20442;-52
2022/08/31 01:51:01;;;;;;;4.90;3.60;;;;;;;13.98;100.00;102547.56;5031536;28;20530;-54
2022/08/31 01:53:28;;;;;;;4.07;3.73;;;;;;;13.98;100.00;102550.25;5020112;28;20452;-54
2022/08/31 01:55:57;;;;;;;3.30;3.20;;;;;;;14.01;100.00;102547.22;5025612;28;20459;-55
2022/08/31 01:58:25;;;;;;;3.67;3.50;;;;;;;14.03;100.00;102549.72;5031365;28;20443;-52
2022/08/31 02:00:53;;;;;;;4.13;3.90;;;;;;;14.01;100.00;102551.75;5031317;28;20436;-54
2022/08/31 02:03:20;;;;;;;3.40;3.20;;;;;;;14.03;100.00;102544.38;5030964;28;20577;-54
2022/08/31 02:05:48;;;;;;;3.70;3.50;;;;;;;14.04;100.00;102554.06;5030753;28;20487;-54
2022/08/31 02:08:16;;;;;;;4.03;3.83;;;;;;;14.08;100.00;102550.88;5031259;28;20937;-55
2022/08/31 02:10:44;;;;;;;3.37;3.17;;;;;;;14.14;100.00;102544.81;5031197;28;20462;-54
2022/08/31 02:13:13;;;;;;;3.70;3.10;;;;;;;14.13;100.00;102543.13;5030953;28;20432;-55
2022/08/31 02:15:41;;;;;;;3.80;3.70;;;;;;;14.14;100.00;102547.47;5034721;28;20467;-55
2022/08/31 02:18:08;;;;;;;3.60;3.50;;;;;;;14.11;100.00;102547.00;5035057;28;20432;-51
2022/08/31 02:20:38;;;;;;;3.47;3.23;;;;;;;14.11;100.00;102549.69;5035190;28;20436;-54
2022/08/31 02:23:06;;;;;;;3.37;3.17;;;;;;;14.11;100.00;102545.16;5035081;28;20482;-49
2022/08/31 02:25:34;;;;;;;5.33;3.90;;;;;;;14.13;100.00;102555.69;5034452;28;20464;-56
2022/08/31 02:28:02;;;;;;;3.97;3.67;;;;;;;14.15;100.00;102541.13;5034904;28;20452;-54
2022/08/31 02:30:31;;;;;;;3.30;3.10;;;;;;;14.21;100.00;102542.25;5034737;28;20917;-52
2022/08/31 02:32:59;;;;;;;3.53;3.33;;;;;;;14.27;100.00;102542.38;5034435;28;20435;-51
2022/08/31 02:35:26;;;;;;;4.57;3.80;;;;;;;14.33;100.00;102543.56;5034441;28;20475;-50
2022/08/31 02:37:54;;;;;;;3.47;3.27;;;;;;;14.34;100.00;102540.69;5034724;28;20482;-56
2022/08/31 02:40:22;;;;;;;3.07;2.97;;;;;;;14.38;100.00;102543.84;5034774;28;20439;-54
2022/08/31 02:42:50;;;;;;;3.70;3.40;;;;;;;14.40;100.00;102541.81;5034411;28;20484;-56
2022/08/31 02:45:20;;;;;;;3.53;3.20;;;;;;;14.38;100.00;102541.16;5034095;28;20464;-54
2022/08/31 02:47:50;;;;;;;3.33;3.17;;;;;;;14.39;100.00;102534.78;5034356;28;21008;-55
2022/08/31 02:50:17;;;;;;;3.40;3.20;;;;;;;14.43;100.00;102544.13;5034629;28;20801;-56
2022/08/31 02:52:45;;;;;;;3.60;3.43;;;;;;;14.42;100.00;102536.28;5026165;28;20435;-53
2022/08/31 02:55:13;;;;;;;3.90;3.57;;;;;;;14.38;100.00;102541.16;5025667;28;20473;-56
2022/08/31 02:57:41;;;;;;;3.60;3.50;;;;;;;14.38;100.00;102538.47;5034111;28;20977;-55
2022/08/31 03:00:10;;;;;;;7.83;4.27;;;;;;;14.40;100.00;102537.28;5034290;28;20799;-54
2022/08/31 03:02:39;;;;;;;5.13;4.63;;;;;;;14.38;100.00;102538.47;5034140;28;20472;-56
2022/08/31 03:05:10;;;;;;;4.10;3.90;;;;;;;14.35;100.00;102537.00;5033693;28;20472;-54
2022/08/31 03:07:38;;;;;;;3.90;3.60;;;;;;;14.36;100.00;102535.16;5033988;28;20974;-51
2022/08/31 03:10:09;;;;;;;3.90;3.80;;;;;;;14.33;100.00;102538.19;5034184;28;20436;-56
2022/08/31 03:12:37;;;;;;;3.93;3.60;;;;;;;14.29;100.00;102539.50;5033907;28;20420;-55
2022/08/31 03:15:06;;;;;;;4.47;4.20;;;;;;;14.25;100.00;102533.66;5033610;28;20464;-51
2022/08/31 03:17:34;;;;;;;4.13;3.93;;;;;;;14.22;100.00;102531.31;5034068;28;20466;-55
2022/08/31 03:20:03;;;;;;;4.03;3.83;;;;;;;14.21;100.00;102531.53;5033739;28;20963;-53
2022/08/31 03:22:33;;;;;;;3.67;3.50;;;;;;;14.10;100.00;102530.06;5033572;28;20476;-50
2022/08/31 03:25:03;;;;;;;3.97;3.87;;;;;;;14.07;100.00;102532.25;5032879;28;20476;-56
2022/08/31 03:27:31;;;;;;;4.03;3.83;;;;;;;14.01;100.00;102522.25;5033669;28;20452;-56
2022/08/31 03:29:59;;;;;;;3.77;3.60;;;;;;;13.94;100.00;102529.31;5033961;28;20802;-54
2022/08/31 03:32:27;;;;;;;4.20;4.10;;;;;;;13.87;100.00;102529.19;5033581;28;20800;-56
2022/08/31 03:34:56;;;;;;;3.97;3.70;;;;;;;13.80;100.00;102534.41;5033192;28;20460;-56
2022/08/31 03:37:24;;;;;;;3.90;3.60;;;;;;;13.77;100.00;102532.06;5033354;28;20459;-51
2022/08/31 03:39:53;;;;;;;3.80;3.70;;;;;;;13.71;100.00;102530.06;5033549;28;20447;-56
2022/08/31 03:42:21;;;;;;;4.80;4.60;;;;;;;13.68;100.00;102529.59;5033360;28;20471;-56
2022/08/31 03:44:48;;;;;;;4.33;4.07;;;;;;;13.61;100.00;102529.47;5032987;28;20479;-56
2022/08/31 03:47:16;;;;;;;3.40;3.30;;;;;;;13.55;100.00;102532.00;5032939;28;20981;-54
2022/08/31 03:49:44;;;;;;;3.83;3.63;;;;;;;13.48;100.00;102533.69;5033314;28;20443;-55
2022/08/31 03:52:12;;;;;;;3.67;3.17;;;;;;;13.41;100.00;102541.56;5024720;28;20440;-56
2022/08/31 03:54:40;;;;;;;3.50;3.37;;;;;;;13.34;100.00;102535.25;5024733;28;20802;-55
2022/08/31 03:57:09;;;;;;;3.47;3.37;;;;;;;13.27;100.00;102540.44;5033381;28;20459;-54
2022/08/31 03:59:37;;;;;;;4.57;4.27;;;;;;;13.23;100.00;102552.50;5033128;28;20798;-52
2022/08/31 04:02:04;;;;;;;3.53;3.33;;;;;;;13.18;100.00;102549.50;5033155;28;20424;-52
2022/08/31 04:04:32;;;;;;;5.90;4.53;;;;;;;13.16;100.00;102556.03;5032531;28;20475;-56
2022/08/31 04:07:00;;;;;;;5.13;4.83;;;;;;;13.11;100.00;102547.69;5033193;28;20459;-52
2022/08/31 04:09:28;;;;;;;5.00;4.70;;;;;;;13.09;100.00;102549.66;5033339;28;20515;-56
2022/08/31 04:11:55;;;;;;;4.00;3.80;;;;;;;13.06;100.00;102549.97;5032866;28;20428;-53
2022/08/31 04:14:24;;;;;;;4.70;4.40;;;;;;;13.03;100.00;102556.50;5032367;28;20435;-51
2022/08/31 04:16:52;;;;;;;3.80;3.60;;;;;;;13.00;100.00;102553.31;5032883;28;20456;-53
2022/08/31 04:19:19;;;;;;;4.43;4.13;;;;;;;12.97;100.00;102542.94;5032938;28;20446;-51
2022/08/31 04:21:48;;;;;;;5.77;5.47;;;;;;;13.02;100.00;102551.34;5033069;28;20436;-50
2022/08/31 04:24:16;;;;;;;5.23;4.77;;;;;;;13.05;100.00;102565.19;5032190;28;20487;-51
2022/08/31 04:26:44;;;;;;;5.90;5.50;;;;;;;13.08;100.00;102558.72;5032694;28;20456;-56
2022/08/31 04:29:11;;;;;;;4.70;4.50;;;;;;;13.08;100.00;102562.22;5032830;28;20440;-56
2022/08/31 04:31:42;;;;;;;5.07;4.77;;;;;;;13.09;100.00;102561.22;5056889;22;20480;-43
2022/08/31 04:34:09;;;;;;;5.17;4.87;;;;;;;13.11;100.00;102564.56;5033138;28;20955;-41
2022/08/31 04:36:37;;;;;;;8.33;5.80;;;;;;;13.13;100.00;102551.84;5032981;28;20468;-44
2022/08/31 04:39:06;;;;;;;5.93;5.63;;;;;;;13.15;100.00;102554.34;5033112;28;20442;-44
2022/08/31 04:41:36;;;;;;;5.00;4.60;;;;;;;13.17;100.00;102558.53;5033132;28;20841;-46
2022/08/31 04:44:04;;;;;;;4.70;4.50;;;;;;;13.21;100.00;102562.56;5032746;28;20483;-43
2022/08/31 04:46:35;;;;;;;4.57;4.23;;;;;;;13.27;100.00;102558.34;5032526;28;20468;-45
2022/08/31 04:49:06;;;;;;;4.90;4.60;;;;;;;13.32;100.00;102555.19;5033145;28;20789;-43
2022/08/31 04:51:34;;;;;;;5.33;4.77;;;;;;;13.36;100.00;102560.00;5032836;28;20467;-44
2022/08/31 04:54:04;;;;;;;5.10;4.80;;;;;;;13.39;100.00;102554.31;5041108;28;20424;-47
2022/08/31 04:56:34;;;;;;;4.70;4.40;;;;;;;13.47;100.00;102553.47;5051676;28;20455;-42
2022/08/31 04:59:05;;;;;;;4.70;4.30;;;;;;;13.53;100.00;102553.59;5052925;28;20432;-45
2022/08/31 05:01:35;;;;;;;5.10;4.63;;;;;;;13.63;100.00;102556.09;5052784;28;20826;-43
2022/08/31 05:04:12;;;;;;;5.00;4.43;;;;;;;13.72;100.00;102561.25;5052505;28;21196;-43
2022/08/31 05:06:43;;;;;;;5.47;5.07;;;;;;;14.39;100.00;102556.28;5052152;28;20465;-45
2022/08/31 05:09:12;;;;;;;5.23;4.77;;;;;;;15.34;100.00;102552.09;5052440;28;20432;-43
2022/08/31 05:11:40;;;;;;;7.03;4.90;;;;;;;16.17;100.00;102554.47;5053568;28;20447;-41
2022/08/31 05:14:09;;;;;;;5.57;5.17;;;;;;;17.17;100.00;102560.66;5053070;28;20435;-43
2022/08/31 05:16:37;;;;;;;5.47;5.07;;;;;;;18.05;100.00;102547.28;5052796;28;20486;-43
2022/08/31 05:19:06;;;;;;;4.93;4.63;;;;;;;18.93;100.00;102549.78;5053698;28;20442;-43
2022/08/31 05:21:37;;;;;;;5.43;5.13;;;;;;;19.65;96.23;102559.72;5052685;28;20461;-47
2022/08/31 05:24:08;;;;;;;4.70;4.50;;;;;;;20.28;88.93;102563.44;5052720;28;20470;-48
2022/08/31 05:26:38;;;;;;;4.77;4.47;;;;;;;20.73;79.16;102550.59;5052209;28;20463;-45
2022/08/31 05:29:09;;;;;;;4.50;4.30;;;;;;;21.29;76.87;102558.72;5052815;28;20437;-43
2022/08/31 05:31:37;;;;;;;5.07;4.67;;;;;;;21.73;72.96;102561.19;5052519;28;20508;-41
2022/08/31 05:34:05;;;;;;;4.40;4.20;;;;;;;22.34;71.97;102566.47;5052439;28;20431;-44
2022/08/31 05:36:35;;;;;;;4.47;4.20;;;;;;;22.77;69.96;102554.56;5051897;28;20473;-46
2022/08/31 05:39:02;;;;;;;4.50;4.10;;;;;;;23.30;68.00;102566.22;5052588;28;20526;-44
2022/08/31 05:41:31;;;;;;;4.60;4.20;;;;;;;23.82;66.77;102564.41;5052759;28;20461;-48
2022/08/31 05:43:58;;;;;;;3.90;3.70;;;;;;;24.21;62.74;102568.22;5051711;28;20471;-45
2022/08/31 05:46:26;;;;;;;5.73;3.97;;;;;;;24.57;60.13;102562.38;5051639;28;20462;-49
2022/08/31 05:48:53;;;;;;;3.90;3.70;;;;;;;24.71;55.45;102573.78;5051498;28;20450;-44
2022/08/31 05:51:21;;;;;;;4.23;3.73;;;;;;;24.41;56.52;102565.03;5050649;28;20461;-45
2022/08/31 05:53:51;;;;;;;4.47;4.27;;;;;;;23.57;57.36;102570.13;5040161;28;20424;-42
2022/08/31 05:56:22;;;;;;;4.93;4.50;;;;;;;23.47;60.30;102572.66;5049503;28;20459;-46
2022/08/31 05:58:50;;;;;;;5.00;4.70;;;;;;;23.71;59.28;102565.28;5052504;28;20466;-45
2022/08/31 06:01:20;;;;;;;4.97;4.67;;;;;;;24.12;59.39;102569.69;5052084;28;20454;-43
2022/08/31 06:03:48;;;;;;;4.20;4.00;;;;;;;24.43;58.17;102561.00;5052005;28;20991;-42
2022/08/31 06:06:16;;;;;;;4.33;4.23;;;;;;;24.79;56.76;102566.00;5052034;28;20473;-42
2022/08/31 06:08:45;;;;;;;4.30;4.10;;;;;;;25.01;56.38;102576.22;5052603;28;20446;-44
2022/08/31 06:11:18;;;;;;;4.90;4.50;;;;;;;25.33;52.54;102579.19;5052261;28;20454;-45
2022/08/31 06:13:46;;;;;;;4.40;4.20;;;;;;;25.58;52.83;102583.13;5051929;28;20427;-43
2022/08/31 06:16:16;;;;;;;4.70;4.50;;;;;;;25.72;52.61;102586.31;5051563;28;20995;-44
2022/08/31 06:18:49;;;;;;;4.53;4.33;;;;;;;26.12;53.52;102588.75;5052135;28;20480;-43
2022/08/31 06:21:19;;;;;;;4.07;3.97;;;;;;;26.23;50.69;102587.78;5051934;28;20530;-46
2022/08/31 06:23:49;;;;;;;5.13;4.93;;;;;;;25.92;48.63;102588.50;5051504;28;20589;-44
2022/08/31 06:26:21;;;;;;;5.70;5.50;;;;;;;25.44;51.99;102584.56;5051098;28;20459;-45
2022/08/31 06:28:51;;;;;;;4.80;4.60;;;;;;;25.36;53.79;102582.22;5052026;28;20433;-48
2022/08/31 06:31:23;;;;;;;5.27;5.07;;;;;;;25.18;52.01;102579.75;5051535;28;20467;-45
2022/08/31 06:33:51;;;;;;;4.53;4.40;;;;;;;25.13;51.91;102587.88;5051504;28;20431;-48
2022/08/31 06:36:21;;;;;;;5.20;4.63;;;;;;;24.84;52.76;102581.69;5050905;28;20469;-45
2022/08/31 06:38:49;;;;;;;5.30;5.00;;;;;;;24.83;55.07;102590.09;5051299;28;20440;-44
2022/08/31 06:41:21;;;;;;;4.77;4.57;;;;;;;25.40;51.46;102586.13;5051558;28;20446;-46
2022/08/31 06:43:48;;;;;;;5.20;4.90;;;;;;;25.49;50.81;102578.34;5051201;28;20816;-43
2022/08/31 06:46:18;;;;;;;6.83;4.40;;;;;;;25.98;52.12;102587.47;5051061;28;20459;-44
2022/08/31 06:48:47;;;;;;;4.73;4.53;;;;;;;26.21;52.22;102584.50;5051292;28;20931;-45
2022/08/31 06:51:14;;;;;;;5.23;4.93;;;;;;;26.05;51.85;102588.09;5050634;28;20472;-45
2022/08/31 06:53:42;;;;;;;4.33;3.93;;;;;;;26.54;51.32;102588.94;5039337;28;20431;-43
2022/08/31 06:56:12;;;;;;;5.10;4.00;;;;;;;26.90;49.43;102586.31;5047660;28;20458;-44
2022/08/31 06:58:49;;;;;;;4.63;4.43;;;;;;;26.81;49.68;102589.78;5051980;28;20458;-42
2022/08/31 07:01:26;;;;;;;4.93;4.43;;;;;;;26.74;50.34;102595.44;5053438;28;20885;-44
2022/08/31 07:04:05;;;;;;;4.33;4.23;;;;;;;26.59;49.08;102591.72;5054862;28;20466;-47
2022/08/31 07:06:36;;;;;;;4.40;4.30;;;;;;;26.46;46.96;102592.16;5054880;28;20538;-44
2022/08/31 07:09:07;;;;;;;4.70;4.40;;;;;;;26.11;49.36;102598.00;5055790;28;20427;-48
2022/08/31 07:11:37;;;;;;;5.10;4.90;;;;;;;26.44;47.42;102595.13;5055445;28;20446;-43
2022/08/31 07:14:14;;;;;;;5.00;4.80;;;;;;;26.62;48.55;102597.50;5055290;28;20434;-46
2022/08/31 07:16:42;;;;;;;4.80;4.60;;;;;;;26.68;48.83;102591.00;5055816;28;20801;-42
2022/08/31 07:19:11;;;;;;;4.40;4.30;;;;;;;26.26;47.12;102598.22;5055719;28;20437;-46
2022/08/31 07:21:41;;;;;;;4.73;4.40;;;;;;;25.80;47.86;102594.09;5055429;28;20454;-46
2022/08/31 07:24:10;;;;;;;4.60;4.50;;;;;;;25.36;47.60;102593.16;5054925;28;20431;-45
2022/08/31 07:26:41;;;;;;;4.10;4.00;;;;;;;24.68;47.96;102594.19;5054462;28;20463;-42
2022/08/31 07:29:10;;;;;;;4.00;3.90;;;;;;;24.28;48.70;102588.00;5054752;28;20433;-43
2022/08/31 07:31:43;;;;;;;4.63;4.23;;;;;;;23.93;49.19;102600.84;5054335;28;20485;-41
2022/08/31 07:34:13;;;;;;;4.10;4.00;;;;;;;23.15;51.68;102598.50;5054194;28;20770;-43
2022/08/31 07:42:15;;;;;;;3.70;3.50;;;;;;;22.28;54.14;102607.34;5053878;28;20450;-43
2022/08/31 07:44:48;;;;;;;4.43;4.03;;;;;;;21.77;57.41;102607.72;5053543;28;20467;-44
2022/08/31 07:47:27;;;;;;;3.10;2.90;;;;;;;21.88;56.15;102612.44;5053870;28;20426;-45
2022/08/31 07:49:59;;;;;;;3.37;2.87;;;;;;;21.60;55.47;102606.63;5054322;28;20438;-42
2022/08/31 07:52:29;;;;;;;2.90;2.80;;;;;;;21.90;53.78;102608.44;5045486;28;20448;-46
2022/08/31 07:55:03;;;;;;;2.90;2.80;;;;;;;21.82;51.84;102607.88;5045194;28;20485;-45
2022/08/31 07:57:35;;;;;;;3.40;3.30;;;;;;;21.78;53.24;102604.78;5054052;28;20431;-45
2022/08/31 08:00:07;;;;;;;3.20;3.00;;;;;;;22.21;51.98;102610.16;5054247;28;20439;-43
2022/08/31 08:02:37;;;;;;;3.30;3.10;;;;;;;22.24;52.87;102590.66;5055150;28;20443;-44
2022/08/31 08:05:06;;;;;;;3.00;2.80;;;;;;;22.05;53.05;102595.28;5054432;28;20831;-43
2022/08/31 08:07:35;;;;;;;2.93;2.83;;;;;;;22.30;50.69;102599.78;5054508;28;20435;-43
2022/08/31 08:10:06;;;;;;;2.80;2.70;;;;;;;22.66;49.91;102591.56;5054494;28;20435;-44
2022/08/31 08:12:35;;;;;;;3.10;2.90;;;;;;;22.56;50.65;102596.69;5053429;28;20455;-45
2022/08/31 08:15:05;;;;;;;2.93;2.83;;;;;;;22.50;50.23;102592.19;5053568;28;20823;-44
2022/08/31 08:17:33;;;;;;;3.00;2.90;;;;;;;22.70;51.67;102592.75;5053944;28;20431;-43
2022/08/31 08:20:03;;;;;;;3.00;2.90;;;;;;;22.69;47.90;102596.53;5053912;28;20441;-43
2022/08/31 08:22:32;;;;;;;2.50;2.40;;;;;;;22.41;49.00;102602.56;5053159;28;20447;-46
2022/08/31 08:25:19;;;;;;;2.60;2.40;;;;;;;22.66;45.37;102598.91;5053087;28;20482;-45
2022/08/31 08:27:54;;;;;;;2.83;2.63;;;;;;;22.63;46.40;102599.31;5053736;28;20521;-47
2022/08/31 08:30:22;;;;;;;2.80;2.70;;;;;;;22.69;46.83;102595.72;5053506;28;20461;-42
2022/08/31 08:32:49;;;;;;;2.23;2.13;;;;;;;22.33;48.05;102596.63;5053149;28;20430;-42
2022/08/31 08:35:19;;;;;;;4.00;2.53;;;;;;;21.89;47.63;102600.53;5052621;28;20987;-44
2022/08/31 08:37:46;;;;;;;2.60;2.50;;;;;;;22.04;47.71;102600.97;5053289;28;20434;-47
2022/08/31 08:40:35;;;;;;;4.80;2.57;;;;;;;22.27;47.71;102600.25;5053194;28;20442;-44
2022/08/31 08:43:04;;;;;;;2.80;2.70;;;;;;;22.70;46.33;102605.53;5052969;28;20796;-43
2022/08/31 08:45:33;;;;;;;3.07;2.97;;;;;;;22.20;44.08;102603.03;5052864;28;20474;-41
2022/08/31 08:48:11;;;;;;;2.80;2.70;;;;;;;22.68;44.84;102599.47;5053286;28;20496;-43
2022/08/31 08:50:41;;;;;;;2.87;2.77;;;;;;;22.69;43.80;102601.16;5053098;28;20433;-44
2022/08/31 08:53:14;;;;;;;2.63;2.53;;;;;;;22.86;42.47;102610.28;5044693;28;20919;-43
2022/08/31 08:55:42;;;;;;;2.93;2.70;;;;;;;22.72;44.01;102603.41;5038150;28;20466;-43
2022/08/31 08:58:12;;;;;;;2.80;2.70;;;;;;;21.96;46.54;102612.94;5052901;28;20431;-44
2022/08/31 09:00:45;;;;;;;2.90;2.70;;;;;;;22.33;47.87;102611.03;5052625;28;20465;-45
2022/08/31 09:03:23;;;;;;;2.90;2.80;;;;;;;21.99;46.37;102615.22;5052391;28;20437;-44
2022/08/31 09:06:00;;;;;;;2.90;2.80;;;;;;;21.63;45.77;102614.31;5051953;28;20565;-45
2022/08/31 09:09:07;;;;;;;3.23;3.13;;;;;;;21.49;46.05;102611.75;5052501;28;20430;-46
2022/08/31 09:11:48;;;;;;;2.90;2.80;;;;;;;21.57;45.41;102601.66;5052519;28;20625;-44
2022/08/31 09:14:31;;;;;;;3.40;3.00;;;;;;;21.79;46.66;102609.16;5052311;28;20431;-43
2022/08/31 09:17:09;;;;;;;3.30;3.20;;;;;;;21.75;46.56;102607.09;5052689;28;20430;-42
2022/08/31 09:22:22;;;;;;;2.93;2.83;;;;;;;21.52;45.01;102616.75;5051651;28;20533;-43
2022/08/31 09:24:51;;;;;;;2.60;2.50;;;;;;;21.70;44.90;102598.81;5050889;28;20991;-43
2022/08/31 09:27:39;;;;;;;3.13;3.03;;;;;;;22.22;42.58;102602.84;5051945;28;20474;-40
2022/08/31 09:30:08;;;;;;;3.10;2.90;;;;;;;22.34;44.04;102612.69;5051922;28;20956;-42
2022/08/31 09:32:36;;;;;;;2.80;2.70;;;;;;;22.20;42.11;102600.31;5051609;28;20458;-44
2022/08/31 09:35:08;;;;;;;2.43;2.33;;;;;;;22.08;43.51;102604.03;5051665;28;20465;-47
2022/08/31 09:37:44;;;;;;;2.60;2.50;;;;;;;22.33;43.63;102602.88;5051915;28;20427;-44
2022/08/31 09:40:15;;;;;;;2.87;2.77;;;;;;;22.38;42.79;102604.91;5051776;28;20435;-43
2022/08/31 09:43:02;;;;;;;3.00;2.80;;;;;;;22.56;43.96;102605.69;5051852;28;20430;-43
2022/08/31 09:45:34;;;;;;;2.70;2.60;;;;;;;22.12;45.37;102611.53;5051229;28;20541;-41
2022/08/31 09:48:08;;;;;;;2.70;2.60;;;;;;;22.13;44.70;102615.06;5051895;28;20436;-43
2022/08/31 09:50:43;;;;;;;3.27;3.17;;;;;;;22.13;43.67;102607.75;5051423;28;20438;-44
2022/08/31 09:56:14;;;;;;;2.57;2.37;;;;;;;21.74;44.92;102610.91;5046694;28;20458;-43
2022/08/31 09:58:46;;;;;;;2.60;2.50;;;;;;;21.69;45.12;102608.84;5051526;28;20426;-40
2022/08/31 10:01:19;;;;;;;2.50;2.40;;;;;;;22.13;45.03;102606.91;5051579;28;20450;-43
2022/08/31 10:03:48;;;;;;;2.70;2.50;;;;;;;22.15;44.87;102599.34;5051654;28;20456;-43
2022/08/31 10:06:42;;;;;;;2.87;2.60;;;;;;;22.01;44.79;102613.09;5051136;28;20478;-46
2022/08/31 10:09:24;;;;;;;2.30;2.20;;;;;;;22.24;45.31;102603.44;5051737;28;20489;-44
2022/08/31 10:11:56;;;;;;;2.83;2.63;;;;;;;21.96;44.23;102612.94;5051688;28;20450;-45
2022/08/31 10:14:32;;;;;;;3.03;2.90;;;;;;;21.91;46.18;102599.22;5050989;28;20437;-46
2022/08/31 10:17:04;;;;;;;2.77;2.67;;;;;;;22.01;47.02;102604.13;5051531;28;20444;-43
2022/08/31 10:19:43;;;;;;;3.00;2.80;;;;;;;21.67;48.73;102602.81;5051896;28;20427;-43
2022/08/31 10:22:24;;;;;;;2.60;2.50;;;;;;;21.79;45.47;102603.72;5051416;28;20450;-43
2022/08/31 10:25:05;;;;;;;2.90;2.80;;;;;;;21.73;45.25;102607.34;5051168;28;20554;-45
2022/08/31 10:27:39;;;;;;;3.60;3.40;;;;;;;21.79;45.11;102595.56;5051824;28;20480;-46
2022/08/31 10:30:12;;;;;;;3.00;2.90;;;;;;;22.09;45.65;102592.13;5051475;28;20439;-42
2022/08/31 10:32:48;;;;;;;2.80;2.70;;;;;;;22.38;45.87;102592.13;5050920;28;20470;-44
2022/08/31 10:35:21;;;;;;;2.70;2.60;;;;;;;21.95;43.26;102596.91;5052551;28;20465;-45
2022/08/31 10:37:58;;;;;;;3.60;3.40;;;;;;;21.90;43.55;102604.88;5055374;28;20766;-44
2022/08/31 10:40:31;;;;;;;3.20;2.97;;;;;;;21.80;44.53;102604.56;5055293;28;20438;-45
2022/08/31 10:43:09;;;;;;;3.60;3.30;;;;;;;21.66;43.93;102609.28;5055118;28;20856;-43
2022/08/31 10:45:42;;;;;;;3.23;3.13;;;;;;;21.79;44.58;102602.88;5054663;28;20461;-43
2022/08/31 10:48:11;;;;;;;3.00;2.80;;;;;;;21.94;43.38;102593.34;5055034;28;20474;-44
2022/08/31 10:50:46;;;;;;;3.07;2.87;;;;;;;22.53;44.32;102597.16;5054779;28;20437;-44
2022/08/31 10:53:31;;;;;;;2.80;2.70;;;;;;;22.81;42.97;102594.69;5046017;28;20452;-43
2022/08/31 10:56:13;;;;;;;2.77;2.67;;;;;;;23.20;41.96;102593.22;5050069;28;20459;-45
2022/08/31 10:58:53;;;;;;;2.67;2.57;;;;;;;23.49;40.44;102588.72;5054934;28;20436;-43
2022/08/31 11:01:27;;;;;;;3.53;3.37;;;;;;;23.49;41.75;102594.19;5067493;22;20483;-44
2022/08/31 11:04:43;;;;;;;2.60;2.50;;;;;;;23.85;39.33;102585.72;5014716;28;20428;-46
2022/08/31 11:07:36;;;;;;;3.33;3.10;;;;;;;23.94;38.42;102578.84;4992668;28;20476;-49
2022/08/31 11:10:18;;;;;;;3.80;2.87;;;;;;;23.86;38.67;102586.56;5015087;28;20794;-45
2022/08/31 11:12:55;;;;;;;3.47;3.27;;;;;;;23.91;39.13;102582.03;5014352;28;20444;-46
2022/08/31 11:15:50;;;;;;;3.50;3.30;;;;;;;23.64;39.11;102579.00;5014203;28;20518;-48
2022/08/31 11:18:52;;;;;;;3.20;3.10;;;;;;;23.35;38.71;102579.13;5014757;28;20436;-49
2022/08/31 11:21:37;;;;;;;3.50;3.30;;;;;;;23.45;39.69;102579.38;5007611;28;20471;-46
2022/08/31 11:24:26;;;;;;;3.40;3.10;;;;;;;23.76;38.69;102575.44;5014383;28;20454;-50
2022/08/31 11:27:05;;;;;;;3.10;3.00;;;;;;;23.90;38.21;102587.72;5014360;28;20500;-47
2022/08/31 11:29:42;;;;;;;3.37;3.23;;;;;;;24.05;39.01;102588.88;5014579;28;20801;-46
2022/08/31 11:32:19;;;;;;;3.03;2.93;;;;;;;24.14;38.46;102578.44;5014065;28;20451;-44
2022/08/31 11:34:52;;;;;;;3.47;3.37;;;;;;;24.00;38.54;102582.47;5013731;28;20464;-48
2022/08/31 11:37:59;;;;;;;3.37;3.23;;;;;;;23.36;38.47;102576.16;5014284;28;20431;-47
2022/08/31 11:41:02;;;;;;;3.60;3.47;;;;;;;23.23;38.00;102572.84;5014236;28;20511;-49
2022/08/31 11:43:51;;;;;;;3.57;3.47;;;;;;;23.01;38.13;102569.88;5014128;28;20424;-49
2022/08/31 11:46:58;;;;;;;3.30;3.20;;;;;;;23.63;37.27;102571.91;5013026;28;20472;-46
2022/08/31 11:49:42;;;;;;;2.90;2.70;;;;;;;23.53;37.14;102566.25;5013862;28;20885;-49
2022/08/31 11:52:41;;;;;;;2.90;2.80;;;;;;;24.11;36.51;102557.13;5013975;28;20459;-51
2022/08/31 11:55:45;;;;;;;2.90;2.77;;;;;;;24.64;35.79;102562.22;5023951;28;20491;-45
2022/08/31 11:58:25;;;;;;;3.10;2.90;;;;;;;24.82;35.75;102558.47;5023949;28;20431;-45
2022/08/31 12:00:58;;;;;;;3.30;3.00;;;;;;;24.56;37.32;102557.13;5032558;28;20431;-46